^^
Station Historical Data
Daily Summary for May 13, 2017 Units:  Both    English   Metric
« Previous Day
Next Day »
Daily Weekly Monthly Yearly Custom
  High: Low: Average:
Temperature: 77.2 °F /  25.1 °C 46.8 °F /  8.2 °C 61.1 °F /  16.2 °C
Dew Point: 39.0 °F /  3.9 °C 30.0 °F /  -1.1 °C 35.7 °F /  2.1 °C
Humidity: 67% 18% 42%
Wind Speed: 6.0mph /  9.7km/h - 0.8mph /  1.3km/h
Wind Gust: 12.0mph /  19.3km/h - -
Wind- - SE
Pressure: 30.08 in /  1018.5 hPa 29.95 in /  1014.1 hPa -
Precipitation: 0.00 in /  0 mm    
Historical Graphs
 
 
Tabular Data for May 13, 2017
Time Temperature Dew Point Pressure Wind Wind Speed Wind Gust Humidity Rainfall Rate (Hourly) solar Conditions
00:00 55.6 °F /  13.1 °C 38.3 °F /  3.5 °C 30.04in /  1017.2hPa Calm   1.0mph /  1.6km/h 52% 0.00in /  0mm 0.0 W/m2
00:06 55.4 °F /  13 °C 38.1 °F /  3.4 °C 30.04in /  1017.2hPa Calm   1.0mph /  1.6km/h 52% 0.00in /  0mm 0.0 W/m2
00:12 55.2 °F /  12.9 °C 37.9 °F /  3.3 °C 30.04in /  1017.2hPa Calm     52% 0.00in /  0mm 0.0 W/m2
00:19 55.0 °F /  12.8 °C 38.3 °F /  3.5 °C 30.04in /  1017.2hPa Calm     53% 0.00in /  0mm 0.0 W/m2
00:25 54.9 °F /  12.7 °C 38.1 °F /  3.4 °C 30.04in /  1017.2hPa Calm     53% 0.00in /  0mm 0.0 W/m2
00:31 54.9 °F /  12.7 °C 38.5 °F /  3.6 °C 30.04in /  1017.2hPa Calm     54% 0.00in /  0mm 0.0 W/m2
00:37 54.7 °F /  12.6 °C 38.3 °F /  3.5 °C 30.04in /  1017.2hPa East 0.9mph /  1.4km/h 1.0mph /  1.6km/h 54% 0.00in /  0mm 0.0 W/m2
00:43 54.3 °F /  12.4 °C 37.9 °F /  3.3 °C 30.03in /  1016.8hPa Calm     54% 0.00in /  0mm 0.0 W/m2
00:49 54.1 °F /  12.3 °C 37.9 °F /  3.3 °C 30.03in /  1016.8hPa Calm     54% 0.00in /  0mm 0.0 W/m2
00:55 54.0 °F /  12.2 °C 38.1 °F /  3.4 °C 30.03in /  1016.8hPa Calm     55% 0.00in /  0mm 0.0 W/m2
01:02 53.8 °F /  12.1 °C 37.9 °F /  3.3 °C 30.03in /  1016.8hPa Calm     55% 0.00in /  0mm 0.0 W/m2
01:08 53.4 °F /  11.9 °C 38.1 °F /  3.4 °C 30.03in /  1016.8hPa Calm     56% 0.00in /  0mm 0.0 W/m2
01:14 53.2 °F /  11.8 °C 37.9 °F /  3.3 °C 30.03in /  1016.8hPa Calm     56% 0.00in /  0mm 0.0 W/m2
01:20 53.1 °F /  11.7 °C 38.3 °F /  3.5 °C 30.03in /  1016.8hPa Calm     57% 0.00in /  0mm 0.0 W/m2
01:26 52.9 °F /  11.6 °C 38.5 °F /  3.6 °C 30.03in /  1016.8hPa Calm     58% 0.00in /  0mm 0.0 W/m2
01:32 52.5 °F /  11.4 °C 38.1 °F /  3.4 °C 30.03in /  1016.8hPa Calm     58% 0.00in /  0mm 0.0 W/m2
01:38 52.3 °F /  11.3 °C 37.9 °F /  3.3 °C 30.03in /  1016.8hPa Calm     58% 0.00in /  0mm 0.0 W/m2
01:45 52.2 °F /  11.2 °C 38.3 °F /  3.5 °C 30.03in /  1016.8hPa Calm     59% 0.00in /  0mm 0.0 W/m2
01:51 52.0 °F /  11.1 °C 38.5 °F /  3.6 °C 30.02in /  1016.5hPa Calm     60% 0.00in /  0mm 0.0 W/m2
01:57 51.6 °F /  10.9 °C 38.1 °F /  3.4 °C 30.02in /  1016.5hPa Calm     60% 0.00in /  0mm 0.0 W/m2
02:03 51.4 °F /  10.8 °C 37.9 °F /  3.3 °C 30.02in /  1016.5hPa Calm     60% 0.00in /  0mm 0.0 W/m2
02:09 51.3 °F /  10.7 °C 37.8 °F /  3.2 °C 30.02in /  1016.5hPa Calm     60% 0.00in /  0mm 0.0 W/m2
02:15 51.1 °F /  10.6 °C 38.1 °F /  3.4 °C 30.02in /  1016.5hPa Calm   2.0mph /  3.2km/h 61% 0.00in /  0mm 0.0 W/m2
02:21 51.1 °F /  10.6 °C 37.8 °F /  3.2 °C 30.02in /  1016.5hPa Calm   2.0mph /  3.2km/h 60% 0.00in /  0mm 0.0 W/m2
02:28 51.1 °F /  10.6 °C 37.8 °F /  3.2 °C 30.02in /  1016.5hPa Calm     60% 0.00in /  0mm 0.0 W/m2
02:34 51.3 °F /  10.7 °C 37.4 °F /  3 °C 30.02in /  1016.5hPa Calm     59% 0.00in /  0mm 0.0 W/m2
02:40 51.3 °F /  10.7 °C 37.8 °F /  3.2 °C 30.02in /  1016.5hPa Calm     60% 0.00in /  0mm 0.0 W/m2
02:46 51.1 °F /  10.6 °C 38.1 °F /  3.4 °C 30.02in /  1016.5hPa Calm     61% 0.00in /  0mm 0.0 W/m2
02:52 50.9 °F /  10.5 °C 37.9 °F /  3.3 °C 30.02in /  1016.5hPa Calm     61% 0.00in /  0mm 0.0 W/m2
02:58 50.7 °F /  10.4 °C 37.8 °F /  3.2 °C 30.02in /  1016.5hPa Calm     61% 0.00in /  0mm 0.0 W/m2
03:05 50.5 °F /  10.3 °C 38.5 °F /  3.6 °C 30.02in /  1016.5hPa Calm     63% 0.00in /  0mm 0.0 W/m2
03:11 50.2 °F /  10.1 °C 37.6 °F /  3.1 °C 30.02in /  1016.5hPa Calm   2.0mph /  3.2km/h 62% 0.00in /  0mm 0.0 W/m2
03:17 50.2 °F /  10.1 °C 37.2 °F /  2.9 °C 30.02in /  1016.5hPa Calm   3.0mph /  4.8km/h 61% 0.00in /  0mm 0.0 W/m2
03:23 50.4 °F /  10.2 °C 37.8 °F /  3.2 °C 30.02in /  1016.5hPa Calm     62% 0.00in /  0mm 0.0 W/m2
03:29 50.4 °F /  10.2 °C 37.4 °F /  3 °C 30.02in /  1016.5hPa Calm     61% 0.00in /  0mm 0.0 W/m2
03:35 50.5 °F /  10.3 °C 37.9 °F /  3.3 °C 30.02in /  1016.5hPa Calm     62% 0.00in /  0mm 0.0 W/m2
03:41 50.5 °F /  10.3 °C 37.6 °F /  3.1 °C 30.02in /  1016.5hPa Calm   1.0mph /  1.6km/h 61% 0.00in /  0mm 0.0 W/m2
03:47 50.5 °F /  10.3 °C 37.6 °F /  3.1 °C 30.02in /  1016.5hPa East 0.9mph /  1.4km/h 2.0mph /  3.2km/h 61% 0.00in /  0mm 0.0 W/m2
03:54 50.5 °F /  10.3 °C 36.7 °F /  2.6 °C 30.02in /  1016.5hPa Calm   2.0mph /  3.2km/h 59% 0.00in /  0mm 0.0 W/m2
04:00 50.7 °F /  10.4 °C 36.9 °F /  2.7 °C 30.02in /  1016.5hPa East 0.9mph /  1.4km/h 1.0mph /  1.6km/h 59% 0.00in /  0mm 0.0 W/m2
04:06 50.9 °F /  10.5 °C 36.7 °F /  2.6 °C 30.02in /  1016.5hPa Calm     58% 0.00in /  0mm 0.0 W/m2
04:12 51.1 °F /  10.6 °C 36.9 °F /  2.7 °C 30.02in /  1016.5hPa Calm     58% 0.00in /  0mm 0.0 W/m2
04:18 51.1 °F /  10.6 °C 36.9 °F /  2.7 °C 30.02in /  1016.5hPa Calm     58% 0.00in /  0mm 0.0 W/m2
04:24 51.1 °F /  10.6 °C 36.9 °F /  2.7 °C 30.03in /  1016.8hPa Calm     58% 0.00in /  0mm 0.0 W/m2
04:30 50.9 °F /  10.5 °C 37.6 °F /  3.1 °C 30.03in /  1016.8hPa Calm     60% 0.00in /  0mm 0.0 W/m2
04:36 50.5 °F /  10.3 °C 37.2 °F /  2.9 °C 30.03in /  1016.8hPa Calm     60% 0.00in /  0mm 0.0 W/m2
04:43 50.4 °F /  10.2 °C 37.4 °F /  3 °C 30.03in /  1016.8hPa Calm     61% 0.00in /  0mm 0.0 W/m2
04:49 49.8 °F /  9.9 °C 37.4 °F /  3 °C 30.03in /  1016.8hPa Calm     62% 0.00in /  0mm 0.0 W/m2
04:55 49.5 °F /  9.7 °C 37.0 °F /  2.8 °C 30.03in /  1016.8hPa Calm     62% 0.00in /  0mm 0.0 W/m2
05:01 49.3 °F /  9.6 °C 37.2 °F /  2.9 °C 30.03in /  1016.8hPa Calm     63% 0.00in /  0mm 0.0 W/m2
05:07 48.9 °F /  9.4 °C 36.9 °F /  2.7 °C 30.03in /  1016.8hPa Calm     63% 0.00in /  0mm 0.0 W/m2
05:13 48.9 °F /  9.4 °C 36.9 °F /  2.7 °C 30.03in /  1016.8hPa Calm     63% 0.00in /  0mm 0.0 W/m2
05:20 48.7 °F /  9.3 °C 36.7 °F /  2.6 °C 30.03in /  1016.8hPa Calm     63% 0.00in /  0mm 0.0 W/m2
05:26 48.6 °F /  9.2 °C 36.5 °F /  2.5 °C 30.03in /  1016.8hPa Calm     63% 0.00in /  0mm 0.0 W/m2
05:32 48.4 °F /  9.1 °C 36.3 °F /  2.4 °C 30.03in /  1016.8hPa Calm     63% 0.00in /  0mm 0.0 W/m2
05:38 48.4 °F /  9.1 °C 36.7 °F /  2.6 °C 30.04in /  1017.2hPa Calm     64% 0.00in /  0mm 0.0 W/m2
05:44 48.0 °F /  8.9 °C 36.9 °F /  2.7 °C 30.04in /  1017.2hPa Calm     65% 0.00in /  0mm 0.0 W/m2
05:50 47.7 °F /  8.7 °C 36.5 °F /  2.5 °C 30.04in /  1017.2hPa Calm     65% 0.00in /  0mm 0.0 W/m2
05:56 47.5 °F /  8.6 °C 36.3 °F /  2.4 °C 30.04in /  1017.2hPa Calm     65% 0.00in /  0mm 0.0 W/m2
06:03 47.5 °F /  8.6 °C 36.3 °F /  2.4 °C 30.04in /  1017.2hPa Calm     65% 0.00in /  0mm 0.0 W/m2
06:09 47.3 °F /  8.5 °C 36.1 °F /  2.3 °C 30.04in /  1017.2hPa Calm     65% 0.00in /  0mm 0.0 W/m2
06:15 47.1 °F /  8.4 °C 36.0 °F /  2.2 °C 30.05in /  1017.5hPa Calm     65% 0.00in /  0mm 0.0 W/m2
06:21 47.1 °F /  8.4 °C 35.6 °F /  2 °C 30.05in /  1017.5hPa Calm     64% 0.00in /  0mm 5.0 W/m2
06:27 47.1 °F /  8.4 °C 36.0 °F /  2.2 °C 30.05in /  1017.5hPa Calm     65% 0.00in /  0mm 7.0 W/m2
06:33 46.9 °F /  8.3 °C 36.1 °F /  2.3 °C 30.05in /  1017.5hPa Calm     66% 0.00in /  0mm 11.0 W/m2
06:39 46.8 °F /  8.2 °C 36.3 °F /  2.4 °C 30.06in /  1017.8hPa Calm     67% 0.00in /  0mm 12.0 W/m2
06:46 46.8 °F /  8.2 °C 36.3 °F /  2.4 °C 30.06in /  1017.8hPa Calm     67% 0.00in /  0mm 14.0 W/m2
06:52 46.8 °F /  8.2 °C 36.0 °F /  2.2 °C 30.06in /  1017.8hPa Calm     66% 0.00in /  0mm 16.0 W/m2
06:58 46.9 °F /  8.3 °C 36.1 °F /  2.3 °C 30.06in /  1017.8hPa SSE 2.0mph /  3.2km/h 4.0mph /  6.4km/h 66% 0.00in /  0mm 16.0 W/m2
07:04 47.5 °F /  8.6 °C 36.3 °F /  2.4 °C 30.06in /  1017.8hPa Calm   1.0mph /  1.6km/h 65% 0.00in /  0mm 18.0 W/m2
07:10 47.7 °F /  8.7 °C 36.9 °F /  2.7 °C 30.07in /  1018.2hPa Calm     66% 0.00in /  0mm 19.0 W/m2
07:16 47.8 °F /  8.8 °C 36.7 °F /  2.6 °C 30.07in /  1018.2hPa SE 0.9mph /  1.4km/h 1.0mph /  1.6km/h 65% 0.00in /  0mm 21.0 W/m2
07:23 48.4 °F /  9.1 °C 37.2 °F /  2.9 °C 30.07in /  1018.2hPa Calm     65% 0.00in /  0mm 21.0 W/m2
07:29 48.7 °F /  9.3 °C 37.0 °F /  2.8 °C 30.07in /  1018.2hPa Calm     64% 0.00in /  0mm 23.0 W/m2
07:35 49.3 °F /  9.6 °C 36.3 °F /  2.4 °C 30.07in /  1018.2hPa Calm     61% 0.00in /  0mm 25.0 W/m2
07:41 49.6 °F /  9.8 °C 37.6 °F /  3.1 °C 30.07in /  1018.2hPa Calm   1.0mph /  1.6km/h 63% 0.00in /  0mm 25.0 W/m2
07:47 50.5 °F /  10.3 °C 36.7 °F /  2.6 °C 30.07in /  1018.2hPa SSE 2.0mph /  3.2km/h 2.0mph /  3.2km/h 59% 0.00in /  0mm 26.0 W/m2
07:53 51.6 °F /  10.9 °C 36.9 °F /  2.7 °C 30.08in /  1018.5hPa Calm     57% 0.00in /  0mm 26.0 W/m2
07:59 52.5 °F /  11.4 °C 36.9 °F /  2.7 °C 30.08in /  1018.5hPa Calm     55% 0.00in /  0mm 28.0 W/m2
08:05 53.8 °F /  12.1 °C 36.5 °F /  2.5 °C 30.08in /  1018.5hPa Calm   1.0mph /  1.6km/h 52% 0.00in /  0mm 28.0 W/m2
08:11 54.9 °F /  12.7 °C 36.5 °F /  2.5 °C 30.08in /  1018.5hPa Calm   2.0mph /  3.2km/h 50% 0.00in /  0mm 378.0 W/m2
08:17 56.5 °F /  13.6 °C 37.0 °F /  2.8 °C 30.08in /  1018.5hPa Calm     48% 0.00in /  0mm 404.0 W/m2
08:23 58.5 °F /  14.7 °C 36.7 °F /  2.6 °C 30.08in /  1018.5hPa NNE 0.9mph /  1.4km/h 4.0mph /  6.4km/h 44% 0.00in /  0mm 424.0 W/m2
08:29 60.4 °F /  15.8 °C 36.0 °F /  2.2 °C 30.08in /  1018.5hPa Calm   4.0mph /  6.4km/h 40% 0.00in /  0mm 443.0 W/m2
08:35 61.9 °F /  16.6 °C 36.7 °F /  2.6 °C 30.08in /  1018.5hPa East 4.9mph /  7.9km/h 5.0mph /  8km/h 39% 0.00in /  0mm 462.0 W/m2
08:41 63.5 °F /  17.5 °C 36.1 °F /  2.3 °C 30.08in /  1018.5hPa NNE 2.9mph /  4.7km/h 10.0mph /  16.1km/h 36% 0.00in /  0mm 482.0 W/m2
08:47 64.8 °F /  18.2 °C 35.8 °F /  2.1 °C 30.08in /  1018.5hPa ENE 2.9mph /  4.7km/h 8.0mph /  12.9km/h 34% 0.00in /  0mm 501.0 W/m2
08:53 65.7 °F /  18.7 °C 36.5 °F /  2.5 °C 30.08in /  1018.5hPa NE 4.0mph /  6.4km/h 8.0mph /  12.9km/h 34% 0.00in /  0mm 519.0 W/m2
08:59 66.4 °F /  19.1 °C 35.6 °F /  2 °C 30.08in /  1018.5hPa NNE 6.0mph /  9.7km/h 12.0mph /  19.3km/h 32% 0.00in /  0mm 534.0 W/m2
09:05 66.7 °F /  19.3 °C 36.0 °F /  2.2 °C 30.08in /  1018.5hPa NNE 4.0mph /  6.4km/h 6.0mph /  9.7km/h 32% 0.00in /  0mm 550.0 W/m2
09:11 67.3 °F /  19.6 °C 35.6 °F /  2 °C 30.08in /  1018.5hPa East 4.9mph /  7.9km/h 6.0mph /  9.7km/h 31% 0.00in /  0mm 566.0 W/m2
09:17 67.8 °F /  19.9 °C 36.1 °F /  2.3 °C 30.08in /  1018.5hPa ESE 0.9mph /  1.4km/h 5.0mph /  8km/h 31% 0.00in /  0mm 582.0 W/m2
09:23 68.4 °F /  20.2 °C 35.8 °F /  2.1 °C 30.08in /  1018.5hPa NNE 6.0mph /  9.7km/h 7.0mph /  11.3km/h 30% 0.00in /  0mm 598.0 W/m2
09:29 68.5 °F /  20.3 °C 36.0 °F /  2.2 °C 30.08in /  1018.5hPa NNE 2.0mph /  3.2km/h 8.0mph /  12.9km/h 30% 0.00in /  0mm 610.0 W/m2
09:35 69.1 °F /  20.6 °C 36.3 °F /  2.4 °C 30.08in /  1018.5hPa NE 2.9mph /  4.7km/h 8.0mph /  12.9km/h 30% 0.00in /  0mm 624.0 W/m2
09:41 69.1 °F /  20.6 °C 36.3 °F /  2.4 °C 30.08in /  1018.5hPa NE 0.9mph /  1.4km/h 9.0mph /  14.5km/h 30% 0.00in /  0mm 636.0 W/m2
09:47 69.3 °F /  20.7 °C 36.5 °F /  2.5 °C 30.08in /  1018.5hPa ESE 0.9mph /  1.4km/h 8.0mph /  12.9km/h 30% 0.00in /  0mm 649.0 W/m2
09:53 69.4 °F /  20.8 °C 36.7 °F /  2.6 °C 30.07in /  1018.2hPa ENE 0.9mph /  1.4km/h 6.0mph /  9.7km/h 30% 0.00in /  0mm 663.0 W/m2
09:59 70.2 °F /  21.2 °C 37.2 °F /  2.9 °C 30.07in /  1018.2hPa NE 4.0mph /  6.4km/h 9.0mph /  14.5km/h 30% 0.00in /  0mm 675.0 W/m2
10:05 70.3 °F /  21.3 °C 37.4 °F /  3 °C 30.07in /  1018.2hPa Calm   7.0mph /  11.3km/h 30% 0.00in /  0mm 686.0 W/m2
10:11 71.1 °F /  21.7 °C 38.8 °F /  3.8 °C 30.06in /  1017.8hPa NE 6.0mph /  9.7km/h 6.0mph /  9.7km/h 31% 0.00in /  0mm 694.0 W/m2
10:17 71.4 °F /  21.9 °C 37.6 °F /  3.1 °C 30.06in /  1017.8hPa NNW 2.0mph /  3.2km/h 7.0mph /  11.3km/h 29% 0.00in /  0mm 705.0 W/m2
10:23 71.8 °F /  22.1 °C 36.9 °F /  2.7 °C 30.06in /  1017.8hPa ESE 2.0mph /  3.2km/h 7.0mph /  11.3km/h 28% 0.00in /  0mm 714.0 W/m2
10:29 71.8 °F /  22.1 °C 36.9 °F /  2.7 °C 30.05in /  1017.5hPa NE 2.0mph /  3.2km/h 8.0mph /  12.9km/h 28% 0.00in /  0mm 724.0 W/m2
10:35 72.1 °F /  22.3 °C 37.2 °F /  2.9 °C 30.05in /  1017.5hPa Calm   5.0mph /  8km/h 28% 0.00in /  0mm 729.0 W/m2
10:41 72.7 °F /  22.6 °C 37.8 °F /  3.2 °C 30.05in /  1017.5hPa North 2.9mph /  4.7km/h 4.0mph /  6.4km/h 28% 0.00in /  0mm 737.0 W/m2
10:47 73.0 °F /  22.8 °C 37.9 °F /  3.3 °C 30.05in /  1017.5hPa NE 0.9mph /  1.4km/h 6.0mph /  9.7km/h 28% 0.00in /  0mm 744.0 W/m2
10:53 73.6 °F /  23.1 °C 38.5 °F /  3.6 °C 30.04in /  1017.2hPa Calm   6.0mph /  9.7km/h 28% 0.00in /  0mm 749.0 W/m2
10:59 73.8 °F /  23.2 °C 38.7 °F /  3.7 °C 30.04in /  1017.2hPa Calm   6.0mph /  9.7km/h 28% 0.00in /  0mm 754.0 W/m2
11:05 73.2 °F /  22.9 °C 39.0 °F /  3.9 °C 30.03in /  1016.8hPa Calm     29% 0.00in /  0mm 759.0 W/m2
11:11 73.6 °F /  23.1 °C 37.6 °F /  3.1 °C 30.03in /  1016.8hPa NNE 2.0mph /  3.2km/h 3.0mph /  4.8km/h 27% 0.00in /  0mm 763.0 W/m2
11:17 74.3 °F /  23.5 °C 38.1 °F /  3.4 °C 30.03in /  1016.8hPa NNE 2.0mph /  3.2km/h 5.0mph /  8km/h 27% 0.00in /  0mm 766.0 W/m2
11:23 74.8 °F /  23.8 °C 37.6 °F /  3.1 °C 30.02in /  1016.5hPa NNW 0.9mph /  1.4km/h 2.0mph /  3.2km/h 26% 0.00in /  0mm 772.0 W/m2
11:29 75.4 °F /  24.1 °C 37.0 °F /  2.8 °C 30.02in /  1016.5hPa North 0.9mph /  1.4km/h 1.0mph /  1.6km/h 25% 0.00in /  0mm 770.0 W/m2
11:35 75.9 °F /  24.4 °C 37.6 °F /  3.1 °C 30.02in /  1016.5hPa NNW 4.9mph /  7.9km/h 6.0mph /  9.7km/h 25% 0.00in /  0mm 772.0 W/m2
11:41 75.9 °F /  24.4 °C 37.6 °F /  3.1 °C 30.01in /  1016.1hPa NNE 2.0mph /  3.2km/h 5.0mph /  8km/h 25% 0.00in /  0mm 772.0 W/m2
11:47 75.9 °F /  24.4 °C 37.6 °F /  3.1 °C 30.01in /  1016.1hPa SSW 2.0mph /  3.2km/h 4.0mph /  6.4km/h 25% 0.00in /  0mm 768.0 W/m2
11:53 75.6 °F /  24.2 °C 37.2 °F /  2.9 °C 30.01in /  1016.1hPa North 2.0mph /  3.2km/h 4.0mph /  6.4km/h 25% 0.00in /  0mm 768.0 W/m2
11:59 75.7 °F /  24.3 °C 36.3 °F /  2.4 °C 30.01in /  1016.1hPa North 0.9mph /  1.4km/h 3.0mph /  4.8km/h 24% 0.00in /  0mm 768.0 W/m2
12:07 75.6 °F /  24.2 °C 37.2 °F /  2.9 °C 30.00in /  1015.8hPa WNW 0.9mph /  1.4km/h 3.0mph /  4.8km/h 25% 0.00in /  0mm 761.0 W/m2
12:13 75.6 °F /  24.2 °C 37.2 °F /  2.9 °C 30.00in /  1015.8hPa SSW 2.0mph /  3.2km/h 3.0mph /  4.8km/h 25% 0.00in /  0mm 758.0 W/m2
12:19 75.4 °F /  24.1 °C 37.0 °F /  2.8 °C 29.99in /  1015.5hPa Calm   3.0mph /  4.8km/h 25% 0.00in /  0mm 759.0 W/m2
12:25 75.4 °F /  24.1 °C 37.0 °F /  2.8 °C 29.99in /  1015.5hPa SSE 2.0mph /  3.2km/h 3.0mph /  4.8km/h 25% 0.00in /  0mm 754.0 W/m2
12:31 75.6 °F /  24.2 °C 38.3 °F /  3.5 °C 29.98in /  1015.1hPa Calm   5.0mph /  8km/h 26% 0.00in /  0mm 747.0 W/m2
12:37 76.3 °F /  24.6 °C 38.8 °F /  3.8 °C 29.98in /  1015.1hPa Calm   2.0mph /  3.2km/h 26% 0.00in /  0mm 744.0 W/m2
12:43 76.5 °F /  24.7 °C 37.9 °F /  3.3 °C 29.98in /  1015.1hPa SSW 0.9mph /  1.4km/h 5.0mph /  8km/h 25% 0.00in /  0mm 731.0 W/m2
12:49 75.9 °F /  24.4 °C 36.5 °F /  2.5 °C 29.98in /  1015.1hPa SSW 2.0mph /  3.2km/h 7.0mph /  11.3km/h 24% 0.00in /  0mm 724.0 W/m2
12:55 75.6 °F /  24.2 °C 36.3 °F /  2.4 °C 29.98in /  1015.1hPa Calm   8.0mph /  12.9km/h 24% 0.00in /  0mm 719.0 W/m2
13:02 75.6 °F /  24.2 °C 37.2 °F /  2.9 °C 29.97in /  1014.8hPa SW 2.9mph /  4.7km/h 3.0mph /  4.8km/h 25% 0.00in /  0mm 708.0 W/m2
13:07 75.4 °F /  24.1 °C 36.1 °F /  2.3 °C 29.97in /  1014.8hPa West 0.9mph /  1.4km/h 7.0mph /  11.3km/h 24% 0.00in /  0mm 700.0 W/m2
13:13 75.4 °F /  24.1 °C 37.0 °F /  2.8 °C 29.97in /  1014.8hPa Calm   3.0mph /  4.8km/h 25% 0.00in /  0mm 687.0 W/m2
13:19 75.6 °F /  24.2 °C 36.3 °F /  2.4 °C 29.97in /  1014.8hPa NW 4.0mph /  6.4km/h 4.0mph /  6.4km/h 24% 0.00in /  0mm 680.0 W/m2
13:26 75.9 °F /  24.4 °C 35.4 °F /  1.9 °C 29.96in /  1014.4hPa NNW 4.9mph /  7.9km/h 5.0mph /  8km/h 23% 0.00in /  0mm 671.0 W/m2
13:31 76.5 °F /  24.7 °C 36.0 °F /  2.2 °C 29.96in /  1014.4hPa WSW 4.0mph /  6.4km/h 4.0mph /  6.4km/h 23% 0.00in /  0mm 661.0 W/m2
13:37 76.8 °F /  24.9 °C 36.1 °F /  2.3 °C 29.96in /  1014.4hPa WNW 2.9mph /  4.7km/h 6.0mph /  9.7km/h 23% 0.00in /  0mm 647.0 W/m2
13:44 77.2 °F /  25.1 °C 34.2 °F /  1.2 °C 29.96in /  1014.4hPa WSW 0.9mph /  1.4km/h 5.0mph /  8km/h 21% 0.00in /  0mm 635.0 W/m2
13:50 76.3 °F /  24.6 °C 33.4 °F /  0.8 °C 29.96in /  1014.4hPa SSE 4.9mph /  7.9km/h 10.0mph /  16.1km/h 21% 0.00in /  0mm 624.0 W/m2
13:56 76.1 °F /  24.5 °C 32.2 °F /  0.1 °C 29.96in /  1014.4hPa SSE 0.9mph /  1.4km/h 6.0mph /  9.7km/h 20% 0.00in /  0mm 610.0 W/m2
14:02 75.9 °F /  24.4 °C 32.0 °F /  0 °C 29.96in /  1014.4hPa South 2.0mph /  3.2km/h 4.0mph /  6.4km/h 20% 0.00in /  0mm 598.0 W/m2
14:08 75.9 °F /  24.4 °C 34.3 °F /  1.3 °C 29.96in /  1014.4hPa SW 2.9mph /  4.7km/h 3.0mph /  4.8km/h 22% 0.00in /  0mm 584.0 W/m2
14:14 75.6 °F /  24.2 °C 31.6 °F /  -0.2 °C 29.96in /  1014.4hPa ENE 2.9mph /  4.7km/h 5.0mph /  8km/h 20% 0.00in /  0mm 571.0 W/m2
14:20 75.9 °F /  24.4 °C 30.7 °F /  -0.7 °C 29.95in /  1014.1hPa NNE 0.9mph /  1.4km/h 4.0mph /  6.4km/h 19% 0.00in /  0mm 554.0 W/m2
14:26 76.3 °F /  24.6 °C 30.9 °F /  -0.6 °C 29.96in /  1014.4hPa WSW 2.0mph /  3.2km/h 2.0mph /  3.2km/h 19% 0.00in /  0mm 538.0 W/m2
14:32 76.3 °F /  24.6 °C 32.2 °F /  0.1 °C 29.96in /  1014.4hPa Calm   3.0mph /  4.8km/h 20% 0.00in /  0mm 520.0 W/m2
14:38 76.5 °F /  24.7 °C 31.1 °F /  -0.5 °C 29.96in /  1014.4hPa SSE 0.9mph /  1.4km/h 4.0mph /  6.4km/h 19% 0.00in /  0mm 503.0 W/m2
14:44 76.8 °F /  24.9 °C 31.5 °F /  -0.3 °C 29.95in /  1014.1hPa SSW 0.9mph /  1.4km/h 2.0mph /  3.2km/h 19% 0.00in /  0mm 489.0 W/m2
14:50 76.8 °F /  24.9 °C 30.0 °F /  -1.1 °C 29.95in /  1014.1hPa Calm   4.0mph /  6.4km/h 18% 0.00in /  0mm 469.0 W/m2
14:56 76.8 °F /  24.9 °C 30.0 °F /  -1.1 °C 29.95in /  1014.1hPa Calm   3.0mph /  4.8km/h 18% 0.00in /  0mm 452.0 W/m2
15:02 76.8 °F /  24.9 °C 32.7 °F /  0.4 °C 29.95in /  1014.1hPa SSE 2.9mph /  4.7km/h 6.0mph /  9.7km/h 20% 0.00in /  0mm 427.0 W/m2
15:08 76.6 °F /  24.8 °C 32.5 °F /  0.3 °C 29.95in /  1014.1hPa Calm   6.0mph /  9.7km/h 20% 0.00in /  0mm 406.0 W/m2
15:14 76.5 °F /  24.7 °C 32.4 °F /  0.2 °C 29.95in /  1014.1hPa Calm   3.0mph /  4.8km/h 20% 0.00in /  0mm 385.0 W/m2
15:20 76.1 °F /  24.5 °C 32.2 °F /  0.1 °C 29.95in /  1014.1hPa SSE 2.9mph /  4.7km/h 3.0mph /  4.8km/h 20% 0.00in /  0mm 366.0 W/m2
15:26 75.9 °F /  24.4 °C 33.3 °F /  0.7 °C 29.95in /  1014.1hPa South 4.0mph /  6.4km/h 5.0mph /  8km/h 21% 0.00in /  0mm 345.0 W/m2
15:32 75.4 °F /  24.1 °C 32.7 °F /  0.4 °C 29.95in /  1014.1hPa SW 0.9mph /  1.4km/h 5.0mph /  8km/h 21% 0.00in /  0mm 322.0 W/m2
15:38 74.8 °F /  23.8 °C 33.4 °F /  0.8 °C 29.95in /  1014.1hPa WSW 0.9mph /  1.4km/h 7.0mph /  11.3km/h 22% 0.00in /  0mm 44.0 W/m2
15:44 74.3 °F /  23.5 °C 33.1 °F /  0.6 °C 29.95in /  1014.1hPa Calm   5.0mph /  8km/h 22% 0.00in /  0mm 39.0 W/m2
15:50 73.9 °F /  23.3 °C 33.8 °F /  1 °C 29.95in /  1014.1hPa SSW 0.9mph /  1.4km/h 4.0mph /  6.4km/h 23% 0.00in /  0mm 37.0 W/m2
15:56 73.6 °F /  23.1 °C 33.4 °F /  0.8 °C 29.95in /  1014.1hPa Calm   6.0mph /  9.7km/h 23% 0.00in /  0mm 35.0 W/m2
16:02 73.2 °F /  22.9 °C 33.3 °F /  0.7 °C 29.95in /  1014.1hPa Calm   1.0mph /  1.6km/h 23% 0.00in /  0mm 30.0 W/m2
16:08 73.0 °F /  22.8 °C 35.1 °F /  1.7 °C 29.95in /  1014.1hPa Calm   1.0mph /  1.6km/h 25% 0.00in /  0mm 26.0 W/m2
16:14 72.7 °F /  22.6 °C 33.8 °F /  1 °C 29.96in /  1014.4hPa Calm   2.0mph /  3.2km/h 24% 0.00in /  0mm 23.0 W/m2
16:20 72.5 °F /  22.5 °C 34.7 °F /  1.5 °C 29.95in /  1014.1hPa SSE 4.0mph /  6.4km/h 4.0mph /  6.4km/h 25% 0.00in /  0mm 21.0 W/m2
16:28 72.1 °F /  22.3 °C 34.3 °F /  1.3 °C 29.96in /  1014.4hPa SE 2.0mph /  3.2km/h 4.0mph /  6.4km/h 25% 0.00in /  0mm 19.0 W/m2
16:34 72.0 °F /  22.2 °C 33.3 °F /  0.7 °C 29.96in /  1014.4hPa SE 2.9mph /  4.7km/h 4.0mph /  6.4km/h 24% 0.00in /  0mm 18.0 W/m2
16:40 71.8 °F /  22.1 °C 34.0 °F /  1.1 °C 29.96in /  1014.4hPa Calm   2.0mph /  3.2km/h 25% 0.00in /  0mm 16.0 W/m2
16:46 71.4 °F /  21.9 °C 33.8 °F /  1 °C 29.96in /  1014.4hPa Calm   5.0mph /  8km/h 25% 0.00in /  0mm 16.0 W/m2
16:52 70.9 °F /  21.6 °C 33.3 °F /  0.7 °C 29.96in /  1014.4hPa SSE 0.9mph /  1.4km/h 6.0mph /  9.7km/h 25% 0.00in /  0mm 12.0 W/m2
16:58 70.5 °F /  21.4 °C 34.9 °F /  1.6 °C 29.96in /  1014.4hPa Calm   1.0mph /  1.6km/h 27% 0.00in /  0mm 11.0 W/m2
17:04 70.2 °F /  21.2 °C 34.7 °F /  1.5 °C 29.96in /  1014.4hPa Calm     27% 0.00in /  0mm 9.0 W/m2
17:11 69.6 °F /  20.9 °C 34.2 °F /  1.2 °C 29.97in /  1014.8hPa Calm   1.0mph /  1.6km/h 27% 0.00in /  0mm 7.0 W/m2
17:17 69.1 °F /  20.6 °C 34.5 °F /  1.4 °C 29.97in /  1014.8hPa Calm     28% 0.00in /  0mm 5.0 W/m2
17:23 68.5 °F /  20.3 °C 34.2 °F /  1.2 °C 29.97in /  1014.8hPa Calm   1.0mph /  1.6km/h 28% 0.00in /  0mm 0.0 W/m2
17:29 68.0 °F /  20 °C 34.5 °F /  1.4 °C 29.97in /  1014.8hPa Calm   1.0mph /  1.6km/h 29% 0.00in /  0mm 0.0 W/m2
17:35 67.3 °F /  19.6 °C 34.0 °F /  1.1 °C 29.98in /  1015.1hPa Calm   2.0mph /  3.2km/h 29% 0.00in /  0mm 0.0 W/m2
17:41 66.6 °F /  19.2 °C 34.2 °F /  1.2 °C 29.98in /  1015.1hPa Calm   1.0mph /  1.6km/h 30% 0.00in /  0mm 0.0 W/m2
17:47 66.0 °F /  18.9 °C 34.5 °F /  1.4 °C 29.98in /  1015.1hPa Calm   1.0mph /  1.6km/h 31% 0.00in /  0mm 0.0 W/m2
17:53 65.5 °F /  18.6 °C 34.0 °F /  1.1 °C 29.98in /  1015.1hPa Calm     31% 0.00in /  0mm 0.0 W/m2
17:59 64.8 °F /  18.2 °C 34.2 °F /  1.2 °C 29.98in /  1015.1hPa Calm     32% 0.00in /  0mm 0.0 W/m2
18:05 64.2 °F /  17.9 °C 33.8 °F /  1 °C 29.98in /  1015.1hPa Calm     32% 0.00in /  0mm 0.0 W/m2
18:11 63.7 °F /  17.6 °C 34.7 °F /  1.5 °C 29.99in /  1015.5hPa Calm     34% 0.00in /  0mm 0.0 W/m2
18:17 63.1 °F /  17.3 °C 34.3 °F /  1.3 °C 29.99in /  1015.5hPa Calm   1.0mph /  1.6km/h 34% 0.00in /  0mm 0.0 W/m2
18:23 62.6 °F /  17 °C 33.8 °F /  1 °C 29.99in /  1015.5hPa Calm   1.0mph /  1.6km/h 34% 0.00in /  0mm 0.0 W/m2
18:29 62.1 °F /  16.7 °C 33.4 °F /  0.8 °C 29.99in /  1015.5hPa Calm   1.0mph /  1.6km/h 34% 0.00in /  0mm 0.0 W/m2
18:35 61.5 °F /  16.4 °C 32.9 °F /  0.5 °C 29.99in /  1015.5hPa Calm     34% 0.00in /  0mm 0.0 W/m2
18:41 61.3 °F /  16.3 °C 33.4 °F /  0.8 °C 29.99in /  1015.5hPa NE 0.9mph /  1.4km/h 2.0mph /  3.2km/h 35% 0.00in /  0mm 0.0 W/m2
18:48 61.2 °F /  16.2 °C 34.0 °F /  1.1 °C 30.00in /  1015.8hPa Calm     36% 0.00in /  0mm 0.0 W/m2
18:54 61.0 °F /  16.1 °C 33.8 °F /  1 °C 30.00in /  1015.8hPa Calm     36% 0.00in /  0mm 0.0 W/m2
19:00 60.6 °F /  15.9 °C 33.4 °F /  0.8 °C 30.01in /  1016.1hPa South 2.9mph /  4.7km/h 5.0mph /  8km/h 36% 0.00in /  0mm 0.0 W/m2
19:06 60.6 °F /  15.9 °C 33.4 °F /  0.8 °C 30.01in /  1016.1hPa Calm   1.0mph /  1.6km/h 36% 0.00in /  0mm 0.0 W/m2
19:12 60.6 °F /  15.9 °C 34.2 °F /  1.2 °C 30.01in /  1016.1hPa Calm   1.0mph /  1.6km/h 37% 0.00in /  0mm 0.0 W/m2
19:18 60.4 °F /  15.8 °C 34.7 °F /  1.5 °C 30.01in /  1016.1hPa Calm   3.0mph /  4.8km/h 38% 0.00in /  0mm 0.0 W/m2
19:24 60.1 °F /  15.6 °C 35.1 °F /  1.7 °C 30.01in /  1016.1hPa Calm   3.0mph /  4.8km/h 39% 0.00in /  0mm 0.0 W/m2
19:30 59.7 °F /  15.4 °C 34.7 °F /  1.5 °C 30.01in /  1016.1hPa ENE 0.9mph /  1.4km/h 3.0mph /  4.8km/h 39% 0.00in /  0mm 0.0 W/m2
19:36 59.5 °F /  15.3 °C 35.2 °F /  1.8 °C 30.01in /  1016.1hPa SE 0.9mph /  1.4km/h 3.0mph /  4.8km/h 40% 0.00in /  0mm 0.0 W/m2
19:42 59.4 °F /  15.2 °C 35.1 °F /  1.7 °C 30.01in /  1016.1hPa Calm   3.0mph /  4.8km/h 40% 0.00in /  0mm 0.0 W/m2
19:48 59.2 °F /  15.1 °C 34.9 °F /  1.6 °C 30.01in /  1016.1hPa Calm   1.0mph /  1.6km/h 40% 0.00in /  0mm 0.0 W/m2
19:54 58.8 °F /  14.9 °C 34.5 °F /  1.4 °C 30.02in /  1016.5hPa Calm   1.0mph /  1.6km/h 40% 0.00in /  0mm 0.0 W/m2
20:00 58.5 °F /  14.7 °C 34.9 °F /  1.6 °C 30.02in /  1016.5hPa ESE 0.9mph /  1.4km/h 2.0mph /  3.2km/h 41% 0.00in /  0mm 0.0 W/m2
20:06 58.3 °F /  14.6 °C 34.0 °F /  1.1 °C 30.02in /  1016.5hPa Calm     40% 0.00in /  0mm 0.0 W/m2
20:12 58.3 °F /  14.6 °C 34.0 °F /  1.1 °C 30.02in /  1016.5hPa Calm   1.0mph /  1.6km/h 40% 0.00in /  0mm 0.0 W/m2
20:18 58.1 °F /  14.5 °C 34.0 °F /  1.1 °C 30.02in /  1016.5hPa Calm   2.0mph /  3.2km/h 40% 0.00in /  0mm 0.0 W/m2
20:25 58.1 °F /  14.5 °C 34.5 °F /  1.4 °C 30.03in /  1016.8hPa NE 0.9mph /  1.4km/h 3.0mph /  4.8km/h 41% 0.00in /  0mm 0.0 W/m2
20:31 57.9 °F /  14.4 °C 34.3 °F /  1.3 °C 30.03in /  1016.8hPa East 0.9mph /  1.4km/h 3.0mph /  4.8km/h 41% 0.00in /  0mm 0.0 W/m2
20:37 57.7 °F /  14.3 °C 34.9 °F /  1.6 °C 30.03in /  1016.8hPa ENE 0.9mph /  1.4km/h 3.0mph /  4.8km/h 42% 0.00in /  0mm 0.0 W/m2
20:43 57.4 °F /  14.1 °C 35.1 °F /  1.7 °C 30.03in /  1016.8hPa Calm   2.0mph /  3.2km/h 43% 0.00in /  0mm 0.0 W/m2
20:49 57.0 °F /  13.9 °C 34.7 °F /  1.5 °C 30.03in /  1016.8hPa ESE 2.9mph /  4.7km/h 3.0mph /  4.8km/h 43% 0.00in /  0mm 0.0 W/m2
20:55 56.7 °F /  13.7 °C 34.3 °F /  1.3 °C 30.03in /  1016.8hPa East 2.9mph /  4.7km/h 4.0mph /  6.4km/h 43% 0.00in /  0mm 0.0 W/m2
21:01 56.5 °F /  13.6 °C 34.9 °F /  1.6 °C 30.03in /  1016.8hPa East 0.9mph /  1.4km/h 5.0mph /  8km/h 44% 0.00in /  0mm 0.0 W/m2
21:07 55.9 °F /  13.3 °C 34.9 °F /  1.6 °C 30.03in /  1016.8hPa Calm   2.0mph /  3.2km/h 45% 0.00in /  0mm 0.0 W/m2
21:13 55.8 °F /  13.2 °C 34.7 °F /  1.5 °C 30.03in /  1016.8hPa ENE 2.0mph /  3.2km/h 4.0mph /  6.4km/h 45% 0.00in /  0mm 0.0 W/m2
21:19 55.6 °F /  13.1 °C 34.5 °F /  1.4 °C 30.03in /  1016.8hPa Calm   3.0mph /  4.8km/h 45% 0.00in /  0mm 0.0 W/m2
21:25 55.2 °F /  12.9 °C 34.9 °F /  1.6 °C 30.03in /  1016.8hPa ENE 2.0mph /  3.2km/h 4.0mph /  6.4km/h 46% 0.00in /  0mm 0.0 W/m2
21:27 55.2 °F /  12.9 °C 34.9 °F /  1.6 °C 30.03in /  1016.8hPa Calm   3.0mph /  4.8km/h 46% 0.00in /  0mm 0.0 W/m2
21:33 55.2 °F /  12.9 °C 34.9 °F /  1.6 °C 30.03in /  1016.8hPa East 0.9mph /  1.4km/h 5.0mph /  8km/h 46% 0.00in /  0mm 0.0 W/m2
21:39 55.0 °F /  12.8 °C 34.7 °F /  1.5 °C 30.03in /  1016.8hPa Calm   3.0mph /  4.8km/h 46% 0.00in /  0mm 0.0 W/m2
21:41 55.0 °F /  12.8 °C 34.7 °F /  1.5 °C 30.03in /  1016.8hPa Calm   2.0mph /  3.2km/h 46% 0.00in /  0mm 0.0 W/m2
21:48 54.9 °F /  12.7 °C 34.5 °F /  1.4 °C 30.03in /  1016.8hPa Calm   3.0mph /  4.8km/h 46% 0.00in /  0mm 0.0 W/m2
21:54 54.9 °F /  12.7 °C 34.5 °F /  1.4 °C 30.03in /  1016.8hPa ENE 2.0mph /  3.2km/h 4.0mph /  6.4km/h 46% 0.00in /  0mm 0.0 W/m2
22:00 54.9 °F /  12.7 °C 34.5 °F /  1.4 °C 30.03in /  1016.8hPa Calm   1.0mph /  1.6km/h 46% 0.00in /  0mm 0.0 W/m2
22:06 54.9 °F /  12.7 °C 34.5 °F /  1.4 °C 30.03in /  1016.8hPa Calm   1.0mph /  1.6km/h 46% 0.00in /  0mm 0.0 W/m2
22:12 54.7 °F /  12.6 °C 34.3 °F /  1.3 °C 30.03in /  1016.8hPa Calm   3.0mph /  4.8km/h 46% 0.00in /  0mm 0.0 W/m2
22:18 54.5 °F /  12.5 °C 34.2 °F /  1.2 °C 30.03in /  1016.8hPa Calm   2.0mph /  3.2km/h 46% 0.00in /  0mm 0.0 W/m2
22:24 54.3 °F /  12.4 °C 34.0 °F /  1.1 °C 30.03in /  1016.8hPa Calm   1.0mph /  1.6km/h 46% 0.00in /  0mm 0.0 W/m2
22:30 54.1 °F /  12.3 °C 34.3 °F /  1.3 °C 30.04in /  1017.2hPa Calm   2.0mph /  3.2km/h 47% 0.00in /  0mm 0.0 W/m2
22:37 54.0 °F /  12.2 °C 34.2 °F /  1.2 °C 30.04in /  1017.2hPa Calm     47% 0.00in /  0mm 0.0 W/m2
22:43 53.8 °F /  12.1 °C 34.0 °F /  1.1 °C 30.04in /  1017.2hPa Calm   1.0mph /  1.6km/h 47% 0.00in /  0mm 0.0 W/m2
22:49 53.6 °F /  12 °C 33.8 °F /  1 °C 30.04in /  1017.2hPa Calm   3.0mph /  4.8km/h 47% 0.00in /  0mm 0.0 W/m2
22:55 53.4 °F /  11.9 °C 33.6 °F /  0.9 °C 30.04in /  1017.2hPa Calm   2.0mph /  3.2km/h 47% 0.00in /  0mm 0.0 W/m2
23:01 53.4 °F /  11.9 °C 34.2 °F /  1.2 °C 30.04in /  1017.2hPa East 0.9mph /  1.4km/h 4.0mph /  6.4km/h 48% 0.00in /  0mm 0.0 W/m2
23:07 53.2 °F /  11.8 °C 34.0 °F /  1.1 °C 30.04in /  1017.2hPa Calm   3.0mph /  4.8km/h 48% 0.00in /  0mm 0.0 W/m2
23:13 53.1 °F /  11.7 °C 33.8 °F /  1 °C 30.04in /  1017.2hPa Calm   3.0mph /  4.8km/h 48% 0.00in /  0mm 0.0 W/m2
23:19 53.1 °F /  11.7 °C 33.8 °F /  1 °C 30.04in /  1017.2hPa Calm   3.0mph /  4.8km/h 48% 0.00in /  0mm 0.0 W/m2
23:25 52.9 °F /  11.6 °C 33.8 °F /  1 °C 30.04in /  1017.2hPa Calm   1.0mph /  1.6km/h 48% 0.00in /  0mm 0.0 W/m2
23:31 52.9 °F /  11.6 °C 33.8 °F /  1 °C 30.04in /  1017.2hPa East 2.0mph /  3.2km/h 4.0mph /  6.4km/h 48% 0.00in /  0mm 0.0 W/m2
23:37 52.9 °F /  11.6 °C 33.8 °F /  1 °C 30.04in /  1017.2hPa Calm   1.0mph /  1.6km/h 48% 0.00in /  0mm 0.0 W/m2
23:44 52.9 °F /  11.6 °C 33.8 °F /  1 °C 30.04in /  1017.2hPa Calm     48% 0.00in /  0mm 0.0 W/m2
23:50 52.9 °F /  11.6 °C 34.2 °F /  1.2 °C 30.04in /  1017.2hPa Calm     49% 0.00in /  0mm 0.0 W/m2
23:56 52.5 °F /  11.4 °C 34.0 °F /  1.1 °C 30.03in /  1016.8hPa Calm     49% 0.00in /  0mm 0.0 W/m2
Olympia, Windhoek, Namibia
Compliments of Weather Underground - 3 mb